• Join FlightAware (Why Join?)
  • Login
  • US Flag 
10:23AM EDT


 

Airport Tracker/Info


-or-


 

Live Flight TrackerFlight Track Log ✈ RAX1022 ✈ 28-Jun-2013 ✈ KTOL - KPTK

Flight Track Log - Related Links

Times and Time Zones

All times are in EDT time to prevent confusion due to time zone crossing. See the RAX1022 flight status page for this flight to view local times or setup timezone preferences in your user account.

Time Position Orientation Groundspeed Altitude Reporting Facility
EDT Latitude Longitude Course Direction KTS MPH feet Rate Location/Type
09:09PM 41.6350 -83.8117 329° Northwest 123 142 3,500  Level Cleveland Center
09:10PM 41.6828 -83.8197 353° North 191 220 4,000 180 Climbing Cleveland Center
09:11PM 41.7350 -83.8222 358° North 189 217 4,000 -60 Level Cleveland Center
09:12PM 41.7889 -83.8278 356° North 185 213 3,900 -60 Descending Cleveland Center
09:13PM 41.8367 -83.8331 355° North 184 212 3,900  Level Cleveland Center
09:14PM 41.8543 -84.0434 329° Northwest  Level FlightAware Approximate
09:14PM 41.8886 -83.8439 351° North 184 212 3,900  Level Cleveland Center
09:15PM 41.9406 -83.8522 353° North 182 209 3,900  Level Cleveland Center
09:16PM 41.9903 -83.8575 355° North 182 209 3,900  Level Cleveland Center
09:17PM 42.0425 -83.8603 358° North 186 214 3,900  Level Cleveland Center
09:18PM 42.0925 -83.8544 North 184 212 4,000  Climbing Cleveland Center
09:19PM 42.1447 -83.8514 North 184 212 4,000 -60 Level Cleveland Center
09:20PM 42.1933 -83.8258 21° North 188 216 3,900  Descending Cleveland Center
09:21PM 42.2442 -83.7978 22° Northeast 190 219 4,000 -60 Climbing Cleveland Center
09:22PM 42.2950 -83.7722 20° North 188 216 3,800 -600 Descending Cleveland Center
09:23PM 42.3458 -83.7494 18° North 219 252 2,900 -480 Descending Cleveland Center
09:24PM 42.3964 -83.7239 20° North 193 222 2,900  Level Cleveland Center
09:25PM 42.4453 -83.6953 23° Northeast 191 220 2,900  Level Cleveland Center
09:26PM 42.4981 -83.6669 22° Northeast 188 216 2,900  Level Cleveland Center
09:27PM 42.5464 -83.6553 10° North 187 215 2,900  Level Cleveland Center
09:28PM 42.6006 -83.6494 North 185 213 2,900  Level Cleveland Center
09:29PM 42.6389 -83.6231 27° Northeast 176 203 3,000  Climbing Cleveland Center
09:30PM 42.6611 -83.5761 57° Northeast 137 158 2,900 -480 Descending Cleveland Center
09:31PM 42.6625 -83.5169 88° East 142 163 2,100 -780 Descending Cleveland Center
09:32PM 42.6639 -83.4633 88° East 141 162 1,400 -720 Descending Cleveland Center
09:34PM 42.6500 -83.4167 36° Northeast  Level FlightAware Approximate